createdAt,value
2022-12-08T06:02:10.775Z,18.42
2022-12-08T06:04:37.509Z,20.50
2022-12-08T06:07:04.737Z,20.77
2022-12-08T06:09:31.374Z,21.77
2022-12-08T06:11:58.587Z,23.30
2022-12-08T06:14:25.176Z,24.52
2022-12-08T06:16:52.568Z,25.55
2022-12-08T06:19:19.627Z,25.90
2022-12-08T06:21:46.782Z,26.00
2022-12-08T06:24:13.426Z,25.33
2022-12-08T06:26:41.737Z,25.33
2022-12-08T06:29:08.864Z,24.58
2022-12-08T06:31:36.193Z,24.30
2022-12-08T06:34:02.883Z,24.15
2022-12-08T06:36:30.129Z,25.17
2022-12-08T06:38:57.066Z,24.38
2022-12-08T06:41:24.497Z,25.08
2022-12-08T06:43:51.139Z,25.05
2022-12-08T06:46:20.037Z,25.92
2022-12-08T06:48:47.443Z,25.98
2022-12-08T06:51:19.884Z,25.08
2022-12-08T06:53:47.030Z,26.38
2022-12-08T06:56:16.143Z,24.73
2022-12-08T06:58:46.104Z,25.50
2022-12-08T07:01:17.790Z,26.05
2022-12-08T07:03:44.589Z,24.40
2022-12-08T07:06:24.998Z,26.58
2022-12-08T07:08:52.336Z,25.05
2022-12-08T07:11:22.076Z,25.90
2022-12-08T07:13:49.410Z,26.40
2022-12-08T07:16:16.916Z,26.90
2022-12-08T07:18:44.019Z,25.80
2022-12-08T07:21:13.525Z,26.63
2022-12-08T07:23:40.147Z,27.40
2022-12-08T07:26:10.554Z,25.65
2022-12-08T07:28:39.013Z,23.90
2022-12-08T07:31:06.979Z,23.20
2022-12-08T07:33:34.536Z,25.05
2022-12-08T07:36:04.299Z,25.08
2022-12-08T07:38:31.427Z,23.17
2022-12-08T07:40:59.330Z,23.08
2022-12-08T07:43:26.286Z,24.90
2022-12-08T07:45:53.632Z,22.88
2022-12-08T07:48:20.502Z,23.15
2022-12-08T07:50:47.874Z,23.58
2022-12-08T07:53:14.707Z,21.80
2022-12-08T07:55:43.352Z,22.77
2022-12-08T07:58:10.919Z,25.15
2022-12-08T08:00:38.513Z,21.98
2022-12-08T08:03:06.060Z,22.65
2022-12-08T08:05:33.423Z,22.17
2022-12-08T08:08:00.078Z,22.95
2022-12-08T08:10:27.478Z,21.13
2022-12-08T08:12:54.275Z,20.70
2022-12-08T08:15:21.573Z,17.90
2022-12-08T08:17:51.997Z,18.15
2022-12-08T08:20:19.986Z,19.60
2022-12-08T08:22:50.296Z,19.13
2022-12-08T08:25:19.961Z,17.35
2022-12-08T08:27:46.814Z,18.60
2022-12-08T08:30:19.922Z,17.85
2022-12-08T08:32:47.807Z,16.30
2022-12-08T08:35:15.245Z,17.45
2022-12-08T08:37:45.726Z,17.42
2022-12-08T08:40:15.798Z,14.60
2022-12-08T08:42:42.332Z,14.77
2022-12-08T08:45:09.849Z,14.60
2022-12-08T08:47:37.577Z,13.32
2022-12-08T08:50:05.552Z,15.18
2022-12-08T08:52:32.492Z,15.15
2022-12-08T08:54:59.699Z,14.60
2022-12-08T08:57:26.426Z,13.77
2022-12-08T08:59:54.281Z,14.15
2022-12-08T09:02:21.271Z,13.90
2022-12-08T09:04:48.934Z,13.60
2022-12-08T09:07:16.001Z,13.60
2022-12-08T09:09:43.839Z,13.35
2022-12-08T09:12:10.783Z,13.65
2022-12-08T09:14:37.986Z,14.65
2022-12-08T09:17:05.105Z,13.18
2022-12-08T09:19:32.830Z,13.95
2022-12-08T09:21:59.376Z,14.35
2022-12-08T09:24:26.993Z,14.30
2022-12-08T09:26:53.522Z,13.10
2022-12-08T09:29:20.671Z,11.65
2022-12-08T09:31:47.344Z,12.40
2022-12-08T09:34:14.871Z,13.45
2022-12-08T09:36:41.460Z,12.70
2022-12-08T09:39:08.873Z,12.35
2022-12-08T09:41:48.632Z,11.57
2022-12-08T09:44:34.044Z,11.57
2022-12-08T09:47:03.475Z,12.32
2022-12-08T09:49:50.810Z,11.43
2022-12-08T09:52:33.627Z,12.18
2022-12-08T09:55:09.788Z,12.13
2022-12-08T09:57:36.854Z,11.02
2022-12-08T10:00:07.098Z,11.75
2022-12-08T10:02:34.486Z,10.55
2022-12-08T10:05:01.390Z,10.88
2022-12-08T10:08:04.308Z,11.52
2022-12-08T10:10:58.190Z,10.82
2022-12-08T10:13:58.071Z,12.00
2022-12-08T10:16:36.055Z,11.57
2022-12-08T10:19:17.385Z,10.75
2022-12-08T10:21:45.302Z,9.65
2022-12-08T10:24:22.271Z,10.23
2022-12-08T10:26:49.666Z,11.70
2022-12-08T10:29:16.331Z,10.70
2022-12-08T10:31:43.881Z,10.30
2022-12-08T10:34:18.955Z,11.02
2022-12-08T10:36:54.606Z,9.23
2022-12-08T10:39:45.640Z,9.02
2022-12-08T10:42:15.785Z,9.02
2022-12-08T10:45:08.515Z,9.20
2022-12-08T10:47:44.632Z,8.80
2022-12-08T10:50:23.988Z,9.88
2022-12-08T10:53:00.080Z,8.77
2022-12-08T10:55:27.349Z,8.85
2022-12-08T10:57:54.532Z,9.05
2022-12-08T11:00:24.775Z,8.73
2022-12-08T11:02:56.862Z,9.32
2022-12-08T11:05:28.113Z,9.55
2022-12-08T11:07:56.228Z,9.55
2022-12-08T11:10:32.280Z,9.02
2022-12-08T11:13:06.298Z,8.38
2022-12-08T11:15:39.934Z,8.00
2022-12-08T11:18:10.740Z,8.50
2022-12-08T11:20:41.887Z,8.70
2022-12-08T11:23:24.348Z,9.18
2022-12-08T11:25:52.305Z,9.20
2022-12-08T11:28:24.581Z,8.52
2022-12-08T11:31:32.489Z,8.05
2022-12-08T11:33:59.194Z,8.02
2022-12-08T11:36:29.665Z,9.77
2022-12-08T11:38:59.684Z,8.00
2022-12-08T11:41:37.664Z,7.30
2022-12-08T11:44:28.662Z,7.15
2022-12-08T11:47:09.035Z,6.35
2022-12-08T11:49:39.406Z,7.88
2022-12-08T11:52:18.621Z,7.53
2022-12-08T11:54:52.385Z,7.18
2022-12-08T11:57:23.445Z,6.70
2022-12-08T11:59:54.306Z,7.13
2022-12-08T12:02:27.686Z,6.15
2022-12-08T12:05:09.090Z,6.40
2022-12-08T12:08:06.830Z,6.93
2022-12-08T12:10:54.911Z,6.88
2022-12-08T12:13:57.412Z,8.95
2022-12-08T12:16:53.643Z,7.20
2022-12-08T12:19:22.514Z,6.45
2022-12-08T12:21:56.728Z,6.13
2022-12-08T12:24:36.072Z,6.68
2022-12-08T12:27:16.446Z,7.00
2022-12-08T12:29:56.537Z,6.30
2022-12-08T12:32:25.004Z,6.85
2022-12-08T12:35:00.258Z,6.47
2022-12-08T12:37:40.002Z,5.78
2022-12-08T12:40:17.764Z,5.70
2022-12-08T12:43:14.493Z,6.72
2022-12-08T12:45:43.818Z,5.40
2022-12-08T12:50:56.726Z,4.45
2022-12-08T12:53:24.522Z,4.97
2022-12-08T12:55:55.071Z,5.28
2022-12-08T12:58:28.218Z,5.80
2022-12-08T13:01:10.427Z,7.30
2022-12-08T13:03:45.732Z,7.53
2022-12-08T13:06:15.028Z,6.50
2022-12-08T13:08:53.514Z,6.82
2022-12-08T13:11:22.123Z,8.20
2022-12-08T13:13:57.624Z,6.18
2022-12-08T13:16:28.141Z,6.25
2022-12-08T13:19:02.204Z,7.85
2022-12-08T13:21:37.451Z,6.20
2022-12-08T13:24:26.723Z,5.90
2022-12-08T13:27:05.955Z,5.40
2022-12-08T13:29:33.589Z,5.35
2022-12-08T13:32:03.142Z,4.95
2022-12-08T13:34:45.457Z,5.05
2022-12-08T13:37:12.679Z,5.68
2022-12-08T13:39:39.175Z,5.20
2022-12-08T13:42:17.345Z,7.43
2022-12-08T13:45:24.125Z,6.25
2022-12-08T13:47:59.581Z,15.88
2022-12-08T13:57:02.663Z,4.82
2022-12-08T13:59:30.622Z,4.93
2022-12-08T14:02:03.998Z,4.30
2022-12-08T14:04:47.849Z,4.55
2022-12-08T14:07:18.667Z,4.88
2022-12-08T14:09:46.223Z,6.45
2022-12-08T14:12:22.683Z,4.80
2022-12-08T14:15:03.273Z,5.55
2022-12-08T14:17:31.141Z,5.32
2022-12-08T14:19:57.714Z,5.07
2022-12-08T14:22:24.940Z,5.63
2022-12-08T14:24:53.626Z,5.30
2022-12-08T14:27:26.140Z,5.45
2022-12-08T14:29:58.234Z,5.72
2022-12-08T14:32:42.048Z,5.50
2022-12-08T14:35:08.616Z,6.20
2022-12-08T14:37:42.457Z,5.82
2022-12-08T14:40:37.942Z,6.65
2022-12-08T14:43:08.116Z,6.45
2022-12-08T14:45:46.715Z,6.25
2022-12-08T14:48:33.818Z,6.97
2022-12-08T14:51:03.396Z,5.22
2022-12-08T14:53:39.883Z,5.63
2022-12-08T14:56:23.481Z,7.07
2022-12-08T14:59:03.501Z,7.00
2022-12-08T15:04:12.928Z,4.85
2022-12-08T15:07:15.065Z,4.45
2022-12-08T15:09:48.939Z,5.25
2022-12-08T15:12:15.558Z,5.22
2022-12-08T15:14:54.595Z,5.97
2022-12-08T15:17:32.191Z,6.37
2022-12-08T15:20:00.152Z,5.68
2022-12-08T15:22:28.168Z,6.28
2022-12-08T15:24:56.004Z,6.70
2022-12-08T15:27:25.496Z,6.07
2022-12-08T15:29:52.574Z,6.95
2022-12-08T15:32:24.301Z,7.47
2022-12-08T15:34:50.943Z,6.80
2022-12-08T15:37:25.518Z,6.40
2022-12-08T15:39:52.756Z,6.80
2022-12-08T15:42:19.674Z,6.43
2022-12-08T15:44:47.349Z,7.65
2022-12-08T15:47:22.268Z,16.48
2022-12-08T15:49:50.853Z,12.95
2022-12-08T15:52:20.620Z,10.43
2022-12-08T15:54:49.217Z,10.13
2022-12-08T16:00:51.940Z,7.80
2022-12-08T16:09:40.540Z,8.13
2022-12-08T16:13:13.878Z,7.55
2022-12-08T16:18:16.018Z,7.90
2022-12-08T16:21:07.509Z,7.72
2022-12-08T16:23:42.829Z,7.43
2022-12-08T16:26:49.086Z,6.35
2022-12-08T16:29:00.865Z,6.78
2022-12-08T16:31:27.529Z,7.45
2022-12-08T16:33:54.819Z,7.22
2022-12-08T16:36:21.404Z,7.95
2022-12-08T16:38:48.574Z,8.05
2022-12-08T16:41:34.595Z,8.25
2022-12-08T16:44:06.373Z,10.23
2022-12-08T16:46:33.167Z,10.45
2022-12-08T16:49:00.364Z,10.93
2022-12-08T16:51:27.623Z,11.80
2022-12-08T16:53:57.166Z,11.57
2022-12-08T16:56:30.423Z,12.05
2022-12-08T16:59:00.089Z,13.30
2022-12-08T17:01:26.738Z,14.15
2022-12-08T17:04:29.223Z,14.05
2022-12-08T17:06:40.663Z,16.10
2022-12-08T17:09:07.646Z,15.48
2022-12-08T17:11:40.757Z,16.63
2022-12-08T17:14:09.658Z,17.92
2022-12-08T17:16:36.228Z,17.83
2022-12-08T17:19:03.246Z,19.05
2022-12-08T17:21:29.777Z,18.35
2022-12-08T17:23:56.766Z,18.73
2022-12-08T17:26:23.331Z,17.08
2022-12-08T17:29:05.541Z,17.42
2022-12-08T17:31:32.999Z,16.13
2022-12-08T17:34:05.976Z,17.50
2022-12-08T17:36:32.652Z,18.20
2022-12-08T17:39:01.268Z,18.73
2022-12-08T17:41:29.050Z,17.70
2022-12-08T17:43:56.796Z,18.45
2022-12-08T17:46:24.145Z,20.25
2022-12-08T17:48:51.718Z,18.02
2022-12-08T17:51:18.484Z,18.45
2022-12-08T17:53:46.246Z,19.95
2022-12-08T17:56:19.053Z,18.92
2022-12-08T17:58:51.354Z,18.67
2022-12-08T18:01:22.576Z,19.27
2022-12-08T18:03:50.028Z,19.92
2022-12-08T18:06:17.624Z,21.48
2022-12-08T18:08:45.573Z,20.30
2022-12-08T18:11:19.658Z,20.05
2022-12-08T18:13:48.362Z,22.38
2022-12-08T18:16:15.927Z,21.42
2022-12-08T18:18:43.406Z,20.80
2022-12-08T18:21:10.651Z,23.42
2022-12-08T18:23:39.050Z,22.92
2022-12-08T18:26:07.652Z,22.27
2022-12-08T18:28:36.254Z,25.02
2022-12-08T18:31:07.569Z,21.83
2022-12-08T18:33:34.818Z,22.67
2022-12-08T18:36:01.401Z,22.80
2022-12-08T18:38:28.590Z,25.85
2022-12-08T18:40:55.123Z,23.92
2022-12-08T18:43:22.254Z,23.58
2022-12-08T18:45:48.813Z,25.42
2022-12-08T18:48:15.992Z,22.67
2022-12-08T18:50:44.641Z,21.67
2022-12-08T18:53:11.815Z,23.60
2022-12-08T18:55:38.337Z,21.95
2022-12-08T18:58:05.526Z,22.42
2022-12-08T19:00:32.043Z,22.52
2022-12-08T19:02:59.224Z,22.17
2022-12-08T19:05:25.807Z,23.80
2022-12-08T19:07:52.821Z,22.00
2022-12-08T19:10:20.068Z,22.00
2022-12-08T19:12:50.278Z,24.10
2022-12-08T19:15:17.529Z,23.25
2022-12-08T19:17:44.140Z,23.05
2022-12-08T19:20:12.614Z,23.83
2022-12-08T19:22:39.170Z,20.55
2022-12-08T19:25:06.937Z,21.25
2022-12-08T19:27:34.125Z,22.77
2022-12-08T19:30:01.293Z,21.08
2022-12-08T19:32:29.822Z,19.75
2022-12-08T19:34:57.006Z,21.80
2022-12-08T19:37:23.581Z,21.45
2022-12-08T19:40:09.643Z,21.73
2022-12-08T19:42:54.844Z,22.25
2022-12-08T19:45:22.029Z,22.55
2022-12-08T19:47:49.352Z,23.25
2022-12-08T19:50:34.920Z,22.60
2022-12-08T19:53:04.230Z,21.55
2022-12-08T19:55:30.808Z,20.80
2022-12-08T19:57:58.284Z,22.17
2022-12-08T20:00:25.963Z,21.80
2022-12-08T20:02:52.609Z,21.90
2022-12-08T20:05:19.939Z,22.90
2022-12-08T20:07:47.009Z,22.80
2022-12-08T20:10:35.558Z,22.70
2022-12-08T20:13:21.923Z,22.58
2022-12-08T20:15:48.641Z,22.33
2022-12-08T20:18:16.056Z,21.67
2022-12-08T20:20:44.355Z,22.95
2022-12-08T20:23:12.012Z,22.38
2022-12-08T20:25:39.881Z,24.17
2022-12-08T20:28:07.266Z,23.73
2022-12-08T20:30:34.292Z,25.40
2022-12-08T20:33:01.444Z,25.15
2022-12-08T20:35:28.039Z,23.90
2022-12-08T20:37:54.958Z,24.48
2022-12-08T20:40:21.574Z,25.73
2022-12-08T20:42:49.354Z,24.10
2022-12-08T20:45:16.033Z,24.33
2022-12-08T20:47:42.907Z,24.85
2022-12-08T20:50:10.896Z,25.73
2022-12-08T20:52:37.916Z,25.20
2022-12-08T20:55:06.942Z,24.48
2022-12-08T20:57:33.837Z,23.02
2022-12-08T21:00:01.049Z,23.35
2022-12-08T21:02:27.981Z,25.45
2022-12-08T21:04:55.363Z,24.65
2022-12-08T21:07:22.198Z,25.10
2022-12-08T21:09:49.626Z,23.45
2022-12-08T21:12:16.226Z,23.90
2022-12-08T21:14:43.897Z,27.95
2022-12-08T21:17:10.725Z,24.95
2022-12-08T21:19:38.289Z,25.83
2022-12-08T21:22:05.018Z,24.27
2022-12-08T21:24:34.251Z,25.88
2022-12-08T21:27:01.530Z,25.35
2022-12-08T21:29:28.935Z,23.40
